sensor_id;sensor_type;location;lat;lon;timestamp;P1;durP1;ratioP1;P2;durP2;ratioP2
5221;SDS011;2630;52.036;8.514;2022-09-17T00:02:00;86.90;;;7.63;;
5221;SDS011;2630;52.036;8.514;2022-09-17T00:04:26;84.18;;;7.65;;
5221;SDS011;2630;52.036;8.514;2022-09-17T00:06:52;73.20;;;5.70;;
5221;SDS011;2630;52.036;8.514;2022-09-17T00:09:18;72.80;;;5.53;;
5221;SDS011;2630;52.036;8.514;2022-09-17T00:11:44;73.07;;;6.10;;
5221;SDS011;2630;52.036;8.514;2022-09-17T00:14:13;77.17;;;5.80;;
5221;SDS011;2630;52.036;8.514;2022-09-17T00:16:42;79.15;;;7.00;;
5221;SDS011;2630;52.036;8.514;2022-09-17T00:19:13;75.65;;;5.35;;
5221;SDS011;2630;52.036;8.514;2022-09-17T00:21:41;74.32;;;5.75;;
5221;SDS011;2630;52.036;8.514;2022-09-17T00:24:08;73.57;;;6.78;;
5221;SDS011;2630;52.036;8.514;2022-09-17T00:26:36;79.75;;;6.70;;
5221;SDS011;2630;52.036;8.514;2022-09-17T00:29:02;76.77;;;5.43;;
5221;SDS011;2630;52.036;8.514;2022-09-17T00:31:29;72.82;;;5.20;;
5221;SDS011;2630;52.036;8.514;2022-09-17T00:33:55;72.80;;;5.23;;
5221;SDS011;2630;52.036;8.514;2022-09-17T00:36:24;79.72;;;6.78;;
5221;SDS011;2630;52.036;8.514;2022-09-17T00:38:51;72.90;;;5.60;;
5221;SDS011;2630;52.036;8.514;2022-09-17T00:41:18;72.72;;;5.18;;
5221;SDS011;2630;52.036;8.514;2022-09-17T00:43:46;74.75;;;5.50;;
5221;SDS011;2630;52.036;8.514;2022-09-17T00:49:11;73.03;;;5.00;;
5221;SDS011;2630;52.036;8.514;2022-09-17T00:51:46;73.13;;;5.57;;
5221;SDS011;2630;52.036;8.514;2022-09-17T00:54:21;74.38;;;6.15;;
5221;SDS011;2630;52.036;8.514;2022-09-17T00:56:47;73.05;;;5.35;;
5221;SDS011;2630;52.036;8.514;2022-09-17T00:59:17;75.03;;;5.75;;
5221;SDS011;2630;52.036;8.514;2022-09-17T01:01:46;72.63;;;5.00;;
5221;SDS011;2630;52.036;8.514;2022-09-17T01:04:18;73.35;;;6.10;;
5221;SDS011;2630;52.036;8.514;2022-09-17T01:06:51;72.95;;;5.65;;
5221;SDS011;2630;52.036;8.514;2022-09-17T01:09:33;73.57;;;5.63;;
5221;SDS011;2630;52.036;8.514;2022-09-17T01:17:40;73.05;;;5.78;;
5221;SDS011;2630;52.036;8.514;2022-09-17T01:34:10;73.30;;;5.40;;
5221;SDS011;2630;52.036;8.514;2022-09-17T01:36:43;78.50;;;6.80;;
5221;SDS011;2630;52.036;8.514;2022-09-17T01:39:30;74.32;;;5.18;;
5221;SDS011;2630;52.036;8.514;2022-09-17T01:45:06;79.90;;;5.85;;
5221;SDS011;2630;52.036;8.514;2022-09-17T01:47:43;73.18;;;5.28;;
5221;SDS011;2630;52.036;8.514;2022-09-17T01:50:24;73.80;;;5.50;;
5221;SDS011;2630;52.036;8.514;2022-09-17T01:52:54;77.05;;;6.55;;
5221;SDS011;2630;52.036;8.514;2022-09-17T01:55:25;73.32;;;5.63;;
5221;SDS011;2630;52.036;8.514;2022-09-17T01:58:00;73.10;;;5.90;;
5221;SDS011;2630;52.036;8.514;2022-09-17T02:00:30;77.18;;;6.63;;
5221;SDS011;2630;52.036;8.514;2022-09-17T02:03:07;73.00;;;5.40;;
5221;SDS011;2630;52.036;8.514;2022-09-17T02:05:35;72.95;;;5.65;;
5221;SDS011;2630;52.036;8.514;2022-09-17T02:08:06;72.72;;;5.45;;
5221;SDS011;2630;52.036;8.514;2022-09-17T02:10:52;73.57;;;6.10;;
5221;SDS011;2630;52.036;8.514;2022-09-17T02:13:25;78.00;;;5.93;;
5221;SDS011;2630;52.036;8.514;2022-09-17T02:15:58;79.85;;;6.30;;
5221;SDS011;2630;52.036;8.514;2022-09-17T02:18:32;72.63;;;5.18;;
5221;SDS011;2630;52.036;8.514;2022-09-17T02:21:06;73.68;;;6.00;;
5221;SDS011;2630;52.036;8.514;2022-09-17T02:23:42;72.90;;;5.70;;
5221;SDS011;2630;52.036;8.514;2022-09-17T02:26:15;73.32;;;5.25;;
5221;SDS011;2630;52.036;8.514;2022-09-17T02:28:48;74.70;;;5.95;;
5221;SDS011;2630;52.036;8.514;2022-09-17T02:31:20;75.50;;;6.15;;
5221;SDS011;2630;52.036;8.514;2022-09-17T02:33:47;74.10;;;5.43;;
5221;SDS011;2630;52.036;8.514;2022-09-17T02:36:15;74.07;;;5.22;;
5221;SDS011;2630;52.036;8.514;2022-09-17T02:38:42;72.82;;;5.35;;
5221;SDS011;2630;52.036;8.514;2022-09-17T02:43:49;73.43;;;6.00;;
5221;SDS011;2630;52.036;8.514;2022-09-17T02:51:39;76.90;;;5.85;;
5221;SDS011;2630;52.036;8.514;2022-09-17T02:54:17;73.32;;;5.53;;
5221;SDS011;2630;52.036;8.514;2022-09-17T02:56:47;74.93;;;6.05;;
5221;SDS011;2630;52.036;8.514;2022-09-17T02:59:36;73.25;;;5.47;;
5221;SDS011;2630;52.036;8.514;2022-09-17T03:04:39;72.85;;;5.43;;
5221;SDS011;2630;52.036;8.514;2022-09-17T03:07:06;73.18;;;5.70;;
5221;SDS011;2630;52.036;8.514;2022-09-17T03:09:36;73.10;;;5.85;;
5221;SDS011;2630;52.036;8.514;2022-09-17T03:12:05;73.07;;;5.57;;
5221;SDS011;2630;52.036;8.514;2022-09-17T03:14:30;72.77;;;5.53;;
5221;SDS011;2630;52.036;8.514;2022-09-17T03:16:56;76.33;;;6.10;;
5221;SDS011;2630;52.036;8.514;2022-09-17T03:19:22;72.87;;;5.60;;
5221;SDS011;2630;52.036;8.514;2022-09-17T03:21:47;72.87;;;5.73;;
5221;SDS011;2630;52.036;8.514;2022-09-17T03:24:13;72.87;;;5.37;;
5221;SDS011;2630;52.036;8.514;2022-09-17T03:26:41;77.82;;;6.25;;
5221;SDS011;2630;52.036;8.514;2022-09-17T03:29:07;79.60;;;6.50;;
5221;SDS011;2630;52.036;8.514;2022-09-17T03:31:32;72.53;;;5.03;;
5221;SDS011;2630;52.036;8.514;2022-09-17T03:34:00;72.85;;;5.57;;
5221;SDS011;2630;52.036;8.514;2022-09-17T03:36:25;77.90;;;5.63;;
5221;SDS011;2630;52.036;8.514;2022-09-17T03:38:54;73.00;;;5.73;;
5221;SDS011;2630;52.036;8.514;2022-09-17T03:41:21;74.30;;;5.85;;
5221;SDS011;2630;52.036;8.514;2022-09-17T03:43:47;74.80;;;5.90;;
5221;SDS011;2630;52.036;8.514;2022-09-17T03:46:13;76.70;;;6.80;;
5221;SDS011;2630;52.036;8.514;2022-09-17T03:48:39;72.97;;;5.63;;
5221;SDS011;2630;52.036;8.514;2022-09-17T03:51:05;73.10;;;5.90;;
5221;SDS011;2630;52.036;8.514;2022-09-17T03:53:31;73.10;;;6.10;;
5221;SDS011;2630;52.036;8.514;2022-09-17T03:55:58;78.50;;;6.45;;
5221;SDS011;2630;52.036;8.514;2022-09-17T03:58:25;77.07;;;6.03;;
5221;SDS011;2630;52.036;8.514;2022-09-17T04:00:51;72.75;;;5.00;;
5221;SDS011;2630;52.036;8.514;2022-09-17T04:03:17;73.05;;;5.57;;
5221;SDS011;2630;52.036;8.514;2022-09-17T04:05:45;79.20;;;6.57;;
5221;SDS011;2630;52.036;8.514;2022-09-17T04:08:11;72.87;;;5.70;;
5221;SDS011;2630;52.036;8.514;2022-09-17T04:10:39;73.25;;;5.65;;
5221;SDS011;2630;52.036;8.514;2022-09-17T04:13:05;72.97;;;5.90;;
5221;SDS011;2630;52.036;8.514;2022-09-17T04:15:31;77.13;;;6.30;;
5221;SDS011;2630;52.036;8.514;2022-09-17T04:17:56;72.80;;;5.47;;
5221;SDS011;2630;52.036;8.514;2022-09-17T04:20:25;73.50;;;5.37;;
5221;SDS011;2630;52.036;8.514;2022-09-17T04:22:51;75.20;;;5.78;;
5221;SDS011;2630;52.036;8.514;2022-09-17T04:25:18;73.03;;;5.65;;
5221;SDS011;2630;52.036;8.514;2022-09-17T04:27:44;73.22;;;5.15;;
5221;SDS011;2630;52.036;8.514;2022-09-17T04:30:11;79.45;;;6.57;;
5221;SDS011;2630;52.036;8.514;2022-09-17T04:32:37;83.57;;;7.78;;
5221;SDS011;2630;52.036;8.514;2022-09-17T04:35:03;89.67;;;8.70;;
5221;SDS011;2630;52.036;8.514;2022-09-17T04:37:29;85.38;;;7.72;;
5221;SDS011;2630;52.036;8.514;2022-09-17T04:39:56;83.32;;;7.30;;
5221;SDS011;2630;52.036;8.514;2022-09-17T04:42:22;89.33;;;8.57;;
5221;SDS011;2630;52.036;8.514;2022-09-17T04:44:48;80.03;;;6.77;;
5221;SDS011;2630;52.036;8.514;2022-09-17T04:47:13;86.90;;;8.10;;
5221;SDS011;2630;52.036;8.514;2022-09-17T04:49:39;82.93;;;7.72;;
5221;SDS011;2630;52.036;8.514;2022-09-17T04:52:05;94.73;;;9.33;;
5221;SDS011;2630;52.036;8.514;2022-09-17T04:54:31;89.10;;;8.47;;
5221;SDS011;2630;52.036;8.514;2022-09-17T04:56:58;86.57;;;7.67;;
5221;SDS011;2630;52.036;8.514;2022-09-17T04:59:24;89.53;;;8.52;;
5221;SDS011;2630;52.036;8.514;2022-09-17T05:01:50;83.13;;;7.70;;
5221;SDS011;2630;52.036;8.514;2022-09-17T05:04:16;88.97;;;8.45;;
5221;SDS011;2630;52.036;8.514;2022-09-17T05:06:42;86.73;;;7.93;;
5221;SDS011;2630;52.036;8.514;2022-09-17T05:09:08;85.20;;;7.60;;
5221;SDS011;2630;52.036;8.514;2022-09-17T05:11:33;88.87;;;8.57;;
5221;SDS011;2630;52.036;8.514;2022-09-17T05:13:59;88.80;;;8.63;;
5221;SDS011;2630;52.036;8.514;2022-09-17T05:16:25;91.68;;;9.25;;
5221;SDS011;2630;52.036;8.514;2022-09-17T05:18:51;85.77;;;8.40;;
5221;SDS011;2630;52.036;8.514;2022-09-17T05:21:17;76.22;;;6.38;;
5221;SDS011;2630;52.036;8.514;2022-09-17T05:23:44;88.05;;;8.52;;
5221;SDS011;2630;52.036;8.514;2022-09-17T05:26:11;93.20;;;9.68;;
5221;SDS011;2630;52.036;8.514;2022-09-17T05:28:37;94.32;;;9.70;;
5221;SDS011;2630;52.036;8.514;2022-09-17T05:31:03;85.82;;;7.80;;
5221;SDS011;2630;52.036;8.514;2022-09-17T05:33:29;94.85;;;9.95;;
5221;SDS011;2630;52.036;8.514;2022-09-17T05:35:55;88.15;;;8.15;;
5221;SDS011;2630;52.036;8.514;2022-09-17T05:38:21;86.82;;;7.95;;
5221;SDS011;2630;52.036;8.514;2022-09-17T05:40:47;86.03;;;7.87;;
5221;SDS011;2630;52.036;8.514;2022-09-17T05:43:14;89.50;;;8.40;;
5221;SDS011;2630;52.036;8.514;2022-09-17T05:45:40;85.25;;;7.97;;
5221;SDS011;2630;52.036;8.514;2022-09-17T05:48:07;88.90;;;8.50;;
5221;SDS011;2630;52.036;8.514;2022-09-17T05:50:34;84.63;;;7.75;;
5221;SDS011;2630;52.036;8.514;2022-09-17T05:53:03;86.00;;;7.90;;
5221;SDS011;2630;52.036;8.514;2022-09-17T05:55:30;90.32;;;8.65;;
5221;SDS011;2630;52.036;8.514;2022-09-17T05:57:56;86.10;;;7.93;;
5221;SDS011;2630;52.036;8.514;2022-09-17T06:00:22;84.60;;;7.80;;
5221;SDS011;2630;52.036;8.514;2022-09-17T06:02:57;86.33;;;7.77;;
5221;SDS011;2630;52.036;8.514;2022-09-17T06:05:23;85.03;;;7.70;;
5221;SDS011;2630;52.036;8.514;2022-09-17T06:07:49;89.25;;;8.27;;
5221;SDS011;2630;52.036;8.514;2022-09-17T06:10:15;86.00;;;8.07;;
5221;SDS011;2630;52.036;8.514;2022-09-17T06:12:41;88.70;;;8.23;;
5221;SDS011;2630;52.036;8.514;2022-09-17T06:15:07;90.10;;;8.38;;
5221;SDS011;2630;52.036;8.514;2022-09-17T06:17:34;90.97;;;8.60;;
5221;SDS011;2630;52.036;8.514;2022-09-17T06:20:00;90.18;;;8.80;;
5221;SDS011;2630;52.036;8.514;2022-09-17T06:22:26;86.28;;;7.82;;
5221;SDS011;2630;52.036;8.514;2022-09-17T06:24:52;92.80;;;9.00;;
5221;SDS011;2630;52.036;8.514;2022-09-17T06:27:18;87.63;;;7.57;;
5221;SDS011;2630;52.036;8.514;2022-09-17T06:29:44;82.47;;;6.40;;
5221;SDS011;2630;52.036;8.514;2022-09-17T06:32:10;82.40;;;6.03;;
5221;SDS011;2630;52.036;8.514;2022-09-17T06:34:37;76.40;;;6.10;;
5221;SDS011;2630;52.036;8.514;2022-09-17T06:37:04;75.07;;;5.65;;
5221;SDS011;2630;52.036;8.514;2022-09-17T06:39:30;72.85;;;5.22;;
5221;SDS011;2630;52.036;8.514;2022-09-17T06:41:56;72.57;;;5.33;;
5221;SDS011;2630;52.036;8.514;2022-09-17T06:44:22;77.13;;;6.05;;
5221;SDS011;2630;52.036;8.514;2022-09-17T06:46:48;72.65;;;5.38;;
5221;SDS011;2630;52.036;8.514;2022-09-17T06:49:15;73.00;;;5.15;;
5221;SDS011;2630;52.036;8.514;2022-09-17T06:51:41;76.80;;;5.75;;
5221;SDS011;2630;52.036;8.514;2022-09-17T06:54:07;72.10;;;5.43;;
5221;SDS011;2630;52.036;8.514;2022-09-17T06:56:33;74.70;;;5.57;;
5221;SDS011;2630;52.036;8.514;2022-09-17T06:58:59;72.40;;;5.77;;
5221;SDS011;2630;52.036;8.514;2022-09-17T07:01:25;74.68;;;5.78;;
5221;SDS011;2630;52.036;8.514;2022-09-17T07:03:51;74.32;;;5.60;;
5221;SDS011;2630;52.036;8.514;2022-09-17T07:06:16;72.90;;;5.50;;
5221;SDS011;2630;52.036;8.514;2022-09-17T07:08:42;73.07;;;5.60;;
5221;SDS011;2630;52.036;8.514;2022-09-17T07:11:08;78.93;;;6.53;;
5221;SDS011;2630;52.036;8.514;2022-09-17T07:13:33;80.17;;;6.00;;
5221;SDS011;2630;52.036;8.514;2022-09-17T07:16:00;76.05;;;5.25;;
5221;SDS011;2630;52.036;8.514;2022-09-17T07:18:27;81.15;;;5.85;;
5221;SDS011;2630;52.036;8.514;2022-09-17T07:23:20;74.18;;;5.03;;
5221;SDS011;2630;52.036;8.514;2022-09-17T07:25:53;73.50;;;5.60;;
5221;SDS011;2630;52.036;8.514;2022-09-17T07:28:19;72.35;;;5.13;;
5221;SDS011;2630;52.036;8.514;2022-09-17T07:30:46;72.38;;;5.45;;
5221;SDS011;2630;52.036;8.514;2022-09-17T07:33:13;74.95;;;5.68;;
5221;SDS011;2630;52.036;8.514;2022-09-17T07:35:40;75.00;;;5.97;;
5221;SDS011;2630;52.036;8.514;2022-09-17T07:38:06;73.00;;;5.80;;
5221;SDS011;2630;52.036;8.514;2022-09-17T07:40:31;72.50;;;5.70;;
5221;SDS011;2630;52.036;8.514;2022-09-17T07:42:57;72.60;;;5.23;;
5221;SDS011;2630;52.036;8.514;2022-09-17T07:45:22;78.13;;;5.50;;
5221;SDS011;2630;52.036;8.514;2022-09-17T07:47:48;76.10;;;5.70;;
5221;SDS011;2630;52.036;8.514;2022-09-17T07:50:14;72.00;;;5.33;;
5221;SDS011;2630;52.036;8.514;2022-09-17T07:52:46;72.37;;;5.03;;
5221;SDS011;2630;52.036;8.514;2022-09-17T07:55:13;72.50;;;5.47;;
5221;SDS011;2630;52.036;8.514;2022-09-17T07:57:39;71.63;;;5.53;;
5221;SDS011;2630;52.036;8.514;2022-09-17T08:00:05;72.40;;;5.00;;
5221;SDS011;2630;52.036;8.514;2022-09-17T08:02:31;74.30;;;6.10;;
5221;SDS011;2630;52.036;8.514;2022-09-17T08:04:57;73.60;;;5.63;;
5221;SDS011;2630;52.036;8.514;2022-09-17T08:07:23;73.20;;;5.33;;
5221;SDS011;2630;52.036;8.514;2022-09-17T08:09:48;72.90;;;5.60;;
5221;SDS011;2630;52.036;8.514;2022-09-17T08:12:14;71.93;;;5.17;;
5221;SDS011;2630;52.036;8.514;2022-09-17T08:14:42;72.60;;;5.20;;
5221;SDS011;2630;52.036;8.514;2022-09-17T08:17:08;78.00;;;6.43;;
5221;SDS011;2630;52.036;8.514;2022-09-17T08:19:34;72.70;;;5.73;;
5221;SDS011;2630;52.036;8.514;2022-09-17T08:22:00;73.20;;;5.57;;
5221;SDS011;2630;52.036;8.514;2022-09-17T08:24:26;74.10;;;6.00;;
5221;SDS011;2630;52.036;8.514;2022-09-17T08:26:52;76.57;;;5.87;;
5221;SDS011;2630;52.036;8.514;2022-09-17T08:29:18;74.67;;;5.87;;
5221;SDS011;2630;52.036;8.514;2022-09-17T08:31:43;75.20;;;6.07;;
5221;SDS011;2630;52.036;8.514;2022-09-17T08:34:09;73.20;;;5.13;;
5221;SDS011;2630;52.036;8.514;2022-09-17T08:36:35;84.70;;;7.10;;
5221;SDS011;2630;52.036;8.514;2022-09-17T08:39:01;73.67;;;5.73;;
5221;SDS011;2630;52.036;8.514;2022-09-17T08:44:17;72.13;;;6.03;;
5221;SDS011;2630;52.036;8.514;2022-09-17T08:49:56;73.93;;;5.30;;
5221;SDS011;2630;52.036;8.514;2022-09-17T09:01:18;72.97;;;5.50;;
5221;SDS011;2630;52.036;8.514;2022-09-17T09:06:41;77.07;;;6.50;;
5221;SDS011;2630;52.036;8.514;2022-09-17T09:09:20;73.20;;;5.63;;
5221;SDS011;2630;52.036;8.514;2022-09-17T09:11:50;72.67;;;5.33;;
5221;SDS011;2630;52.036;8.514;2022-09-17T09:14:31;74.13;;;6.30;;
5221;SDS011;2630;52.036;8.514;2022-09-17T09:17:00;73.77;;;5.63;;
5221;SDS011;2630;52.036;8.514;2022-09-17T09:19:33;76.67;;;5.90;;
5221;SDS011;2630;52.036;8.514;2022-09-17T09:24:41;75.40;;;6.33;;
5221;SDS011;2630;52.036;8.514;2022-09-17T09:35:10;76.57;;;5.77;;
5221;SDS011;2630;52.036;8.514;2022-09-17T09:37:51;72.93;;;5.90;;
5221;SDS011;2630;52.036;8.514;2022-09-17T09:40:23;82.10;;;6.10;;
5221;SDS011;2630;52.036;8.514;2022-09-17T09:42:52;78.93;;;5.97;;
5221;SDS011;2630;52.036;8.514;2022-09-17T09:45:38;74.33;;;5.50;;
5221;SDS011;2630;52.036;8.514;2022-09-17T09:51:17;81.87;;;6.43;;
5221;SDS011;2630;52.036;8.514;2022-09-17T09:56:54;76.00;;;6.30;;
5221;SDS011;2630;52.036;8.514;2022-09-17T09:59:20;76.50;;;5.70;;
5221;SDS011;2630;52.036;8.514;2022-09-17T10:01:47;74.60;;;6.13;;
5221;SDS011;2630;52.036;8.514;2022-09-17T10:04:17;75.03;;;5.93;;
5221;SDS011;2630;52.036;8.514;2022-09-17T10:06:44;78.00;;;5.90;;
5221;SDS011;2630;52.036;8.514;2022-09-17T10:09:11;85.23;;;7.13;;
5221;SDS011;2630;52.036;8.514;2022-09-17T10:11:37;74.97;;;5.47;;
5221;SDS011;2630;52.036;8.514;2022-09-17T10:14:20;80.63;;;6.13;;
5221;SDS011;2630;52.036;8.514;2022-09-17T10:16:49;75.90;;;6.23;;
5221;SDS011;2630;52.036;8.514;2022-09-17T10:19:34;94.03;;;7.17;;
5221;SDS011;2630;52.036;8.514;2022-09-17T10:21:59;77.83;;;6.30;;
5221;SDS011;2630;52.036;8.514;2022-09-17T10:24:51;78.43;;;6.10;;
5221;SDS011;2630;52.036;8.514;2022-09-17T10:27:18;74.87;;;6.30;;
5221;SDS011;2630;52.036;8.514;2022-09-17T10:29:47;77.03;;;5.80;;
5221;SDS011;2630;52.036;8.514;2022-09-17T10:32:16;75.20;;;6.00;;
5221;SDS011;2630;52.036;8.514;2022-09-17T10:34:58;79.00;;;5.87;;
5221;SDS011;2630;52.036;8.514;2022-09-17T10:37:31;80.10;;;6.13;;
5221;SDS011;2630;52.036;8.514;2022-09-17T10:39:57;77.87;;;5.90;;
5221;SDS011;2630;52.036;8.514;2022-09-17T10:42:23;77.70;;;5.90;;
5221;SDS011;2630;52.036;8.514;2022-09-17T10:44:56;74.97;;;5.23;;
5221;SDS011;2630;52.036;8.514;2022-09-17T10:47:24;75.63;;;5.87;;
5221;SDS011;2630;52.036;8.514;2022-09-17T10:49:55;73.07;;;5.67;;
5221;SDS011;2630;52.036;8.514;2022-09-17T10:57:28;79.37;;;6.60;;
5221;SDS011;2630;52.036;8.514;2022-09-17T11:02:40;74.40;;;5.80;;
5221;SDS011;2630;52.036;8.514;2022-09-17T11:05:25;87.73;;;6.50;;
5221;SDS011;2630;52.036;8.514;2022-09-17T11:08:32;91.97;;;9.00;;
5221;SDS011;2630;52.036;8.514;2022-09-17T11:16:47;83.70;;;7.33;;
5221;SDS011;2630;52.036;8.514;2022-09-17T11:19:50;84.93;;;7.83;;
5221;SDS011;2630;52.036;8.514;2022-09-17T11:22:22;80.30;;;6.10;;
5221;SDS011;2630;52.036;8.514;2022-09-17T11:30:29;75.47;;;5.97;;
5221;SDS011;2630;52.036;8.514;2022-09-17T11:35:46;79.43;;;6.33;;
5221;SDS011;2630;52.036;8.514;2022-09-17T11:38:19;87.67;;;7.37;;
5221;SDS011;2630;52.036;8.514;2022-09-17T11:40:57;75.37;;;5.57;;
5221;SDS011;2630;52.036;8.514;2022-09-17T11:43:34;80.00;;;6.63;;
5221;SDS011;2630;52.036;8.514;2022-09-17T11:48:35;74.80;;;5.77;;
5221;SDS011;2630;52.036;8.514;2022-09-17T11:53:51;81.30;;;5.77;;
5221;SDS011;2630;52.036;8.514;2022-09-17T11:56:35;81.87;;;6.70;;
5221;SDS011;2630;52.036;8.514;2022-09-17T11:59:13;76.10;;;6.00;;
5221;SDS011;2630;52.036;8.514;2022-09-17T12:02:02;80.60;;;6.00;;
5221;SDS011;2630;52.036;8.514;2022-09-17T12:04:42;93.17;;;7.00;;
5221;SDS011;2630;52.036;8.514;2022-09-17T12:09:35;77.00;;;6.03;;
5221;SDS011;2630;52.036;8.514;2022-09-17T12:12:07;76.30;;;5.43;;
5221;SDS011;2630;52.036;8.514;2022-09-17T12:14:58;80.00;;;6.67;;
5221;SDS011;2630;52.036;8.514;2022-09-17T12:17:28;91.17;;;7.67;;
5221;SDS011;2630;52.036;8.514;2022-09-17T12:19:58;80.43;;;6.30;;
5221;SDS011;2630;52.036;8.514;2022-09-17T12:22:28;79.90;;;6.60;;
5221;SDS011;2630;52.036;8.514;2022-09-17T12:24:56;80.27;;;6.43;;
5221;SDS011;2630;52.036;8.514;2022-09-17T12:27:34;84.90;;;7.27;;
5221;SDS011;2630;52.036;8.514;2022-09-17T12:30:18;75.10;;;5.23;;
5221;SDS011;2630;52.036;8.514;2022-09-17T12:35:55;79.73;;;5.73;;
5221;SDS011;2630;52.036;8.514;2022-09-17T12:47:09;77.67;;;5.90;;
5221;SDS011;2630;52.036;8.514;2022-09-17T12:58:57;75.17;;;5.97;;
5221;SDS011;2630;52.036;8.514;2022-09-17T13:01:29;101.03;;;7.60;;
5221;SDS011;2630;52.036;8.514;2022-09-17T13:03:59;109.30;;;8.13;;
5221;SDS011;2630;52.036;8.514;2022-09-17T13:12:12;89.03;;;6.33;;
5221;SDS011;2630;52.036;8.514;2022-09-17T13:15:01;101.53;;;7.47;;
5221;SDS011;2630;52.036;8.514;2022-09-17T13:20:16;81.10;;;6.30;;
5221;SDS011;2630;52.036;8.514;2022-09-17T13:22:49;74.40;;;5.67;;
5221;SDS011;2630;52.036;8.514;2022-09-17T13:25:17;79.40;;;6.07;;
5221;SDS011;2630;52.036;8.514;2022-09-17T13:27:44;77.20;;;5.30;;
5221;SDS011;2630;52.036;8.514;2022-09-17T13:30:11;83.80;;;6.30;;
5221;SDS011;2630;52.036;8.514;2022-09-17T13:37:31;74.03;;;5.30;;
5221;SDS011;2630;52.036;8.514;2022-09-17T13:39:59;81.87;;;6.20;;
5221;SDS011;2630;52.036;8.514;2022-09-17T13:42:27;77.80;;;6.00;;
5221;SDS011;2630;52.036;8.514;2022-09-17T13:45:03;76.30;;;5.43;;
5221;SDS011;2630;52.036;8.514;2022-09-17T13:47:38;82.70;;;6.60;;
5221;SDS011;2630;52.036;8.514;2022-09-17T13:50:06;75.93;;;5.57;;
5221;SDS011;2630;52.036;8.514;2022-09-17T13:52:46;83.30;;;7.53;;
5221;SDS011;2630;52.036;8.514;2022-09-17T13:55:30;75.63;;;5.53;;
5221;SDS011;2630;52.036;8.514;2022-09-17T13:57:58;76.60;;;6.20;;
5221;SDS011;2630;52.036;8.514;2022-09-17T14:21:32;80.23;;;5.97;;
5221;SDS011;2630;52.036;8.514;2022-09-17T14:24:02;84.57;;;6.83;;
5221;SDS011;2630;52.036;8.514;2022-09-17T14:26:51;79.70;;;6.20;;
5221;SDS011;2630;52.036;8.514;2022-09-17T14:29:29;76.53;;;6.63;;
5221;SDS011;2630;52.036;8.514;2022-09-17T14:31:58;72.70;;;5.00;;
5221;SDS011;2630;52.036;8.514;2022-09-17T14:34:24;84.67;;;6.20;;
5221;SDS011;2630;52.036;8.514;2022-09-17T14:36:51;80.67;;;6.87;;
5221;SDS011;2630;52.036;8.514;2022-09-17T14:39:21;84.07;;;6.50;;
5221;SDS011;2630;52.036;8.514;2022-09-17T14:41:48;81.03;;;7.23;;
5221;SDS011;2630;52.036;8.514;2022-09-17T14:44:17;76.87;;;6.50;;
5221;SDS011;2630;52.036;8.514;2022-09-17T14:46:47;81.57;;;6.43;;
5221;SDS011;2630;52.036;8.514;2022-09-17T14:49:24;83.50;;;7.40;;
5221;SDS011;2630;52.036;8.514;2022-09-17T14:51:58;76.50;;;5.97;;
5221;SDS011;2630;52.036;8.514;2022-09-17T14:54:28;77.70;;;5.67;;
5221;SDS011;2630;52.036;8.514;2022-09-17T14:57:02;77.80;;;5.80;;
5221;SDS011;2630;52.036;8.514;2022-09-17T14:59:47;79.27;;;6.40;;
5221;SDS011;2630;52.036;8.514;2022-09-17T15:02:28;73.07;;;5.63;;
5221;SDS011;2630;52.036;8.514;2022-09-17T15:05:15;83.77;;;7.87;;
5221;SDS011;2630;52.036;8.514;2022-09-17T15:07:41;75.20;;;6.07;;
5221;SDS011;2630;52.036;8.514;2022-09-17T15:10:10;73.07;;;5.93;;
5221;SDS011;2630;52.036;8.514;2022-09-17T15:12:37;80.60;;;6.97;;
5221;SDS011;2630;52.036;8.514;2022-09-17T15:15:03;75.10;;;5.70;;
5221;SDS011;2630;52.036;8.514;2022-09-17T15:17:29;73.17;;;5.40;;
5221;SDS011;2630;52.036;8.514;2022-09-17T15:19:57;78.43;;;6.00;;
5221;SDS011;2630;52.036;8.514;2022-09-17T15:22:27;73.97;;;5.23;;
5221;SDS011;2630;52.036;8.514;2022-09-17T15:24:58;73.67;;;5.70;;
5221;SDS011;2630;52.036;8.514;2022-09-17T15:27:30;78.87;;;6.70;;
5221;SDS011;2630;52.036;8.514;2022-09-17T15:30:03;79.83;;;6.40;;
5221;SDS011;2630;52.036;8.514;2022-09-17T15:32:33;74.33;;;5.40;;
5221;SDS011;2630;52.036;8.514;2022-09-17T15:35:18;87.97;;;6.60;;
5221;SDS011;2630;52.036;8.514;2022-09-17T15:37:50;78.77;;;5.77;;
5221;SDS011;2630;52.036;8.514;2022-09-17T15:40:32;80.53;;;6.60;;
5221;SDS011;2630;52.036;8.514;2022-09-17T15:43:05;73.23;;;5.50;;
5221;SDS011;2630;52.036;8.514;2022-09-17T15:45:37;75.63;;;5.77;;
5221;SDS011;2630;52.036;8.514;2022-09-17T15:48:14;86.70;;;7.23;;
5221;SDS011;2630;52.036;8.514;2022-09-17T15:50:49;72.63;;;5.77;;
5221;SDS011;2630;52.036;8.514;2022-09-17T15:53:22;74.30;;;5.50;;
5221;SDS011;2630;52.036;8.514;2022-09-17T15:56:00;72.20;;;6.03;;
5221;SDS011;2630;52.036;8.514;2022-09-17T16:06:53;73.27;;;5.33;;
5221;SDS011;2630;52.036;8.514;2022-09-17T16:08:54;78.40;;;6.40;;
5221;SDS011;2630;52.036;8.514;2022-09-17T16:11:21;73.20;;;5.77;;
5221;SDS011;2630;52.036;8.514;2022-09-17T16:13:48;75.97;;;5.93;;
5221;SDS011;2630;52.036;8.514;2022-09-17T16:16:16;75.03;;;6.27;;
5221;SDS011;2630;52.036;8.514;2022-09-17T16:18:46;72.77;;;5.63;;
5221;SDS011;2630;52.036;8.514;2022-09-17T16:21:13;73.70;;;5.70;;
5221;SDS011;2630;52.036;8.514;2022-09-17T16:23:40;77.90;;;5.70;;
5221;SDS011;2630;52.036;8.514;2022-09-17T16:26:06;76.80;;;5.60;;
5221;SDS011;2630;52.036;8.514;2022-09-17T16:28:37;75.93;;;6.17;;
5221;SDS011;2630;52.036;8.514;2022-09-17T16:31:04;82.80;;;6.43;;
5221;SDS011;2630;52.036;8.514;2022-09-17T16:33:30;73.47;;;5.67;;
5221;SDS011;2630;52.036;8.514;2022-09-17T16:35:56;77.30;;;6.13;;
5221;SDS011;2630;52.036;8.514;2022-09-17T16:38:23;74.90;;;5.73;;
5221;SDS011;2630;52.036;8.514;2022-09-17T16:40:49;74.00;;;6.03;;
5221;SDS011;2630;52.036;8.514;2022-09-17T16:43:16;74.60;;;6.00;;
5221;SDS011;2630;52.036;8.514;2022-09-17T16:45:42;75.30;;;5.73;;
5221;SDS011;2630;52.036;8.514;2022-09-17T16:48:08;72.70;;;5.67;;
5221;SDS011;2630;52.036;8.514;2022-09-17T16:50:34;76.03;;;6.50;;
5221;SDS011;2630;52.036;8.514;2022-09-17T16:53:05;75.13;;;5.97;;
5221;SDS011;2630;52.036;8.514;2022-09-17T16:55:31;74.00;;;5.00;;
5221;SDS011;2630;52.036;8.514;2022-09-17T16:57:57;74.07;;;6.00;;
5221;SDS011;2630;52.036;8.514;2022-09-17T17:00:22;77.90;;;5.77;;
5221;SDS011;2630;52.036;8.514;2022-09-17T17:02:52;77.00;;;5.90;;
5221;SDS011;2630;52.036;8.514;2022-09-17T17:05:19;80.73;;;6.23;;
5221;SDS011;2630;52.036;8.514;2022-09-17T17:07:45;78.67;;;5.73;;
5221;SDS011;2630;52.036;8.514;2022-09-17T17:10:11;80.83;;;6.50;;
5221;SDS011;2630;52.036;8.514;2022-09-17T17:12:37;72.50;;;5.47;;
5221;SDS011;2630;52.036;8.514;2022-09-17T17:15:03;78.97;;;6.30;;
5221;SDS011;2630;52.036;8.514;2022-09-17T17:17:30;78.93;;;5.57;;
5221;SDS011;2630;52.036;8.514;2022-09-17T17:19:57;83.10;;;7.10;;
5221;SDS011;2630;52.036;8.514;2022-09-17T17:22:23;82.57;;;6.63;;
5221;SDS011;2630;52.036;8.514;2022-09-17T17:24:48;75.30;;;5.57;;
5221;SDS011;2630;52.036;8.514;2022-09-17T17:27:14;77.40;;;5.80;;
5221;SDS011;2630;52.036;8.514;2022-09-17T17:29:40;75.83;;;6.07;;
5221;SDS011;2630;52.036;8.514;2022-09-17T17:32:06;78.30;;;6.40;;
5221;SDS011;2630;52.036;8.514;2022-09-17T17:34:32;74.17;;;6.30;;
5221;SDS011;2630;52.036;8.514;2022-09-17T17:36:58;80.87;;;5.93;;
5221;SDS011;2630;52.036;8.514;2022-09-17T17:39:24;75.53;;;5.77;;
5221;SDS011;2630;52.036;8.514;2022-09-17T17:41:49;75.27;;;5.80;;
5221;SDS011;2630;52.036;8.514;2022-09-17T17:44:18;76.90;;;5.80;;
5221;SDS011;2630;52.036;8.514;2022-09-17T17:46:44;80.67;;;6.30;;
5221;SDS011;2630;52.036;8.514;2022-09-17T17:49:09;79.50;;;6.50;;
5221;SDS011;2630;52.036;8.514;2022-09-17T17:51:35;74.80;;;5.80;;
5221;SDS011;2630;52.036;8.514;2022-09-17T17:54:01;78.27;;;6.40;;
5221;SDS011;2630;52.036;8.514;2022-09-17T17:56:27;94.13;;;8.13;;
5221;SDS011;2630;52.036;8.514;2022-09-17T17:58:53;76.67;;;6.60;;
5221;SDS011;2630;52.036;8.514;2022-09-17T18:01:24;74.72;;;6.15;;